CYQQ

Comox Airport

Comox, , Canada
METAR CYQQ 160600Z 15018G26KT 5SM -RA BR BKN020 OVC030 08/05 A2973 RMK SC5SC3 SLP067
Observed Flight Rules
Dec-16 @ 06:00 UTC (42 minutes ago) Marginal Visual Flight Rules
Wind Visibility Clouds Conditions
150° at 18 knots
 Gusting to 26 knots
5 miles
  • Broken at 2,000' AGL
  • Overcast at 3,000' AGL
  • Light Rain
  • Mist
Temperatures Readings
Current 8°C / 46°F
Dewpoint 5°C / 41°F
Humidity 82%
Altimeter 29.73" Hg
Pressure 1006.7 hPa
Elevation 24
METAR CYQQ 160600Z 15018G26KT 5SM -RA BR BKN020 OVC030 08/05 A2973 RMK SC5SC3 SLP067
Observed Flight Rules
Dec-16 @ 06:00 UTC
(42 minutes ago)
MVFR
Wind Visibility
150° at 18 knots
 Gusting to 26 knots
5 miles
Clouds
  • Broken at 2,000' AGL
  • Overcast at 3,000' AGL
Conditions
  • Light Rain
  • Mist
Temperature Dewpoint
8°C / 46°F 5°C / 41°F
Humidity Altimeter Pressure
82% 29.73" Hg 1006.7 hPa